createdAt,value
2022-08-01T00:03:07.658Z,12.1
2022-08-01T00:08:05.715Z,12.1
2022-08-01T00:13:03.548Z,12.1
2022-08-01T00:18:01.760Z,12.1
2022-08-01T00:22:59.695Z,12.1
2022-08-01T00:27:57.939Z,12.2
2022-08-01T00:32:56.060Z,12.1
2022-08-01T00:37:53.989Z,11.8
2022-08-01T00:42:51.896Z,11.6
2022-08-01T00:47:55.033Z,11.5
2022-08-01T00:52:51.264Z,11.3
2022-08-01T00:58:02.953Z,11.3
2022-08-01T01:02:44.113Z,11.2
2022-08-01T01:07:49.584Z,11.3
2022-08-01T01:12:41.863Z,11.1
2022-08-01T01:17:49.832Z,11.1
2022-08-01T01:22:37.010Z,11
2022-08-01T01:27:35.070Z,10.9
2022-08-01T01:32:33.271Z,10.9
2022-08-01T01:37:31.597Z,10.9
2022-08-01T01:42:29.690Z,10.9
2022-08-01T01:47:28.007Z,10.8
2022-08-01T01:52:26.021Z,10.7
2022-08-01T01:57:24.024Z,10.6
2022-08-01T02:02:22.128Z,10.6
2022-08-01T02:07:20.146Z,10.6
2022-08-01T02:12:18.088Z,10.6
2022-08-01T02:17:16.106Z,10.4
2022-08-01T02:22:14.123Z,10.4
2022-08-01T02:27:12.551Z,10.3
2022-08-01T02:32:10.612Z,10.2
2022-08-01T02:37:08.493Z,10.3
2022-08-01T02:42:06.869Z,10.2
2022-08-01T02:47:04.744Z,10.2
2022-08-01T02:52:03.165Z,10.1
2022-08-01T02:57:00.537Z,9.9
2022-08-01T03:01:58.769Z,10.1
2022-08-01T03:06:56.907Z,10.1
2022-08-01T03:11:55.220Z,9.9
2022-08-01T03:16:53.399Z,9.8
2022-08-01T03:21:51.301Z,9.7
2022-08-01T03:26:49.316Z,9.7
2022-08-01T03:31:47.511Z,9.8
2022-08-01T03:36:45.591Z,9.9
2022-08-01T03:41:43.921Z,10.4
2022-08-01T03:46:42.947Z,11.7
2022-08-01T03:51:43.601Z,14.6
2022-08-01T03:56:44.095Z,16.6
2022-08-01T04:01:43.835Z,18.2
2022-08-01T04:06:43.008Z,19.1
2022-08-01T04:11:41.793Z,20.7
2022-08-01T04:16:40.781Z,21.4
2022-08-01T04:21:39.579Z,22.3
2022-08-01T04:26:38.474Z,23.2
2022-08-01T04:31:36.819Z,22.7
2022-08-01T04:36:35.496Z,23.6
2022-08-01T04:41:33.786Z,24
2022-08-01T04:46:31.887Z,24.4
2022-08-01T04:51:30.439Z,24.3
2022-08-01T04:56:28.391Z,23.5
2022-08-01T05:01:26.840Z,23.5
2022-08-01T05:06:24.414Z,24.2
2022-08-01T05:11:22.731Z,24.9
2022-08-01T05:16:21.211Z,24.9
2022-08-01T05:21:19.818Z,25.2
2022-08-01T05:26:18.571Z,25.4
2022-08-01T05:31:17.280Z,25.8
2022-08-01T05:36:15.782Z,26.4
2022-08-01T05:41:14.232Z,27.1
2022-08-01T05:46:12.113Z,28
2022-08-01T05:51:10.786Z,29.1
2022-08-01T05:56:08.631Z,29
2022-08-01T06:01:07.143Z,29.6
2022-08-01T06:06:05.653Z,30.4
2022-08-01T06:11:03.992Z,30.9
2022-08-01T06:16:02.728Z,31.3
2022-08-01T06:21:01.621Z,31.4
2022-08-01T06:26:00.376Z,31.1
2022-08-01T06:30:59.089Z,31
2022-08-01T06:35:57.737Z,32.3
2022-08-01T06:40:55.411Z,31.4
2022-08-01T06:45:53.962Z,31.8
2022-08-01T06:50:51.971Z,31.7
2022-08-01T06:55:50.751Z,31.8
2022-08-01T07:00:48.920Z,31.6
2022-08-01T07:05:46.725Z,32.1
2022-08-01T07:10:45.730Z,33.3
2022-08-01T07:15:43.972Z,32.7
2022-08-01T07:20:50.455Z,32.4
2022-08-01T07:25:40.198Z,33.4
2022-08-01T07:30:38.718Z,33.1
2022-08-01T07:35:38.153Z,34.8
2022-08-01T07:40:36.257Z,34.5
2022-08-01T07:45:35.101Z,35.3
2022-08-01T07:50:34.215Z,35.4
2022-08-01T07:55:36.298Z,35.7
2022-08-01T08:00:33.079Z,35.5
2022-08-01T08:05:51.466Z,35.1
2022-08-01T08:10:29.346Z,35.9
2022-08-01T08:15:28.265Z,36.8
2022-08-01T08:20:25.883Z,36.5
2022-08-01T08:25:23.470Z,35.8
2022-08-01T08:30:22.041Z,37.1
2022-08-01T08:35:22.955Z,37.9
2022-08-01T08:40:17.269Z,37.2
2022-08-01T08:45:16.206Z,37.5
2022-08-01T08:50:06.418Z,30.2
2022-08-01T08:55:03.803Z,31.9
2022-08-01T09:00:01.889Z,34.1
2022-08-01T09:05:03.959Z,36.5
2022-08-01T09:09:59.088Z,30.6
2022-08-01T09:14:56.389Z,34
2022-08-01T09:19:57.624Z,35.7
2022-08-01T09:24:51.252Z,32.4
2022-08-01T09:29:49.802Z,29.3
2022-08-01T09:34:46.189Z,29.5
2022-08-01T09:39:43.045Z,31.2
2022-08-01T09:44:54.744Z,36.2
2022-08-01T09:49:50.001Z,35.2
2022-08-01T09:54:41.080Z,34.3
2022-08-01T09:59:57.019Z,36.5
2022-08-01T10:04:39.304Z,36.7
2022-08-01T10:09:40.509Z,36.6
2022-08-01T10:14:33.637Z,33
2022-08-01T10:19:32.790Z,36
2022-08-01T10:24:31.269Z,34.2
2022-08-01T10:29:46.957Z,35.7
2022-08-01T10:34:26.399Z,34.9
2022-08-01T10:39:24.252Z,35.6
2022-08-01T10:44:21.764Z,35.2
2022-08-01T10:49:20.253Z,36.2
2022-08-01T10:54:18.187Z,36
2022-08-01T10:59:16.247Z,36.1
2022-08-01T11:04:16.721Z,36.5
2022-08-01T11:09:12.519Z,35.8
2022-08-01T11:14:10.720Z,35.5
2022-08-01T11:19:07.731Z,35.4
2022-08-01T11:24:05.835Z,34.9
2022-08-01T11:29:19.839Z,36.5
2022-08-01T11:34:03.556Z,36.4
2022-08-01T11:39:01.628Z,36.2
2022-08-01T11:43:59.211Z,35.2
2022-08-01T11:48:57.645Z,36.8
2022-08-01T11:53:55.795Z,37.2
2022-08-01T11:58:54.080Z,36.8
2022-08-01T12:03:52.315Z,37.4
2022-08-01T12:08:50.181Z,36.4
2022-08-01T12:13:47.325Z,36.5
2022-08-01T12:18:45.482Z,33.8
2022-08-01T12:23:44.177Z,36.3
2022-08-01T12:28:42.702Z,36.5
2022-08-01T12:33:36.601Z,31.9
2022-08-01T12:38:35.869Z,35
2022-08-01T12:43:36.122Z,34.9
2022-08-01T12:48:31.283Z,32.7
2022-08-01T12:53:26.911Z,29
2022-08-01T12:58:24.318Z,29.7
2022-08-01T13:03:20.734Z,31.3
2022-08-01T13:08:19.207Z,29.5
2022-08-01T13:13:22.276Z,28.8
2022-08-01T13:18:16.190Z,31.9
2022-08-01T13:23:12.914Z,28.8
2022-08-01T13:28:09.590Z,27.8
2022-08-01T13:33:06.199Z,26.4
2022-08-01T13:38:03.842Z,27.9
2022-08-01T13:43:04.499Z,29
2022-08-01T13:48:04.380Z,27.3
2022-08-01T13:52:58.360Z,29.6
2022-08-01T13:57:57.989Z,30.5
2022-08-01T14:02:55.099Z,26.9
2022-08-01T14:07:51.205Z,26.5
2022-08-01T14:12:49.671Z,27.6
2022-08-01T14:17:47.727Z,26.9
2022-08-01T14:22:45.243Z,26
2022-08-01T14:27:42.680Z,25.9
2022-08-01T14:32:40.779Z,26.6
2022-08-01T14:37:39.066Z,25.7
2022-08-01T14:42:36.097Z,25
2022-08-01T14:47:33.289Z,23.7
2022-08-01T14:52:31.488Z,23.8
2022-08-01T14:57:29.089Z,23.5
2022-08-01T15:02:27.163Z,23.6
2022-08-01T15:07:25.048Z,23
2022-08-01T15:12:22.993Z,22.9
2022-08-01T15:17:21.202Z,22.7
2022-08-01T15:22:18.718Z,22.1
2022-08-01T15:27:16.598Z,22.1
2022-08-01T15:32:14.613Z,22.3
2022-08-01T15:37:12.481Z,22.1
2022-08-01T15:42:11.078Z,22.4
2022-08-01T15:47:09.059Z,22.4
2022-08-01T15:52:07.217Z,22
2022-08-01T15:57:04.633Z,21.8
2022-08-01T16:02:02.835Z,21.9
2022-08-01T16:07:00.897Z,21.8
2022-08-01T16:11:58.821Z,21.7
2022-08-01T16:16:56.834Z,21.6
2022-08-01T16:21:54.851Z,21.4
2022-08-01T16:26:52.860Z,21.2
2022-08-01T16:31:51.417Z,20.8
2022-08-01T16:36:48.163Z,20.5
2022-08-01T16:41:46.064Z,20.3
2022-08-01T16:46:43.989Z,19.9
2022-08-01T16:51:42.303Z,19.5
2022-08-01T16:56:40.141Z,19.3
2022-08-01T17:01:53.598Z,18.9
2022-08-01T17:06:35.841Z,18.7
2022-08-01T17:11:33.833Z,18.3
2022-08-01T17:16:31.989Z,18
2022-08-01T17:21:29.908Z,17.8
2022-08-01T17:26:27.981Z,17.5
2022-08-01T17:31:26.078Z,17.4
2022-08-01T17:36:24.360Z,17.2
2022-08-01T17:41:22.596Z,17
2022-08-01T17:46:20.339Z,16.9
2022-08-01T17:51:22.554Z,16.7
2022-08-01T17:56:16.453Z,16.5
2022-08-01T18:01:14.360Z,16.4
2022-08-01T18:06:12.245Z,16.2
2022-08-01T18:11:10.266Z,16
2022-08-01T18:16:08.355Z,15.9
2022-08-01T18:21:06.253Z,15.9
2022-08-01T18:26:04.284Z,15.7
2022-08-01T18:31:02.332Z,15.6
2022-08-01T18:36:01.695Z,15.4
2022-08-01T18:40:58.127Z,15.1
2022-08-01T18:45:56.187Z,15.1
2022-08-01T18:50:54.440Z,15
2022-08-01T18:55:52.322Z,14.9
2022-08-01T19:00:50.444Z,14.6
2022-08-01T19:05:48.177Z,14.5
2022-08-01T19:10:46.311Z,14.4
2022-08-01T19:15:44.505Z,14.3
2022-08-01T19:20:42.529Z,14.1
2022-08-01T19:25:55.202Z,14.1
2022-08-01T19:30:38.709Z,14
2022-08-01T19:35:36.515Z,14
2022-08-01T19:40:34.545Z,13.9
2022-08-01T19:45:32.538Z,13.9
2022-08-01T19:50:30.879Z,13.9
2022-08-01T19:55:29.045Z,13.9
2022-08-01T20:00:28.121Z,13.9
2022-08-01T20:05:25.154Z,13.8
2022-08-01T20:10:23.291Z,13.9
2022-08-01T20:15:21.502Z,13.9
2022-08-01T20:20:19.446Z,13.9
2022-08-01T20:25:17.522Z,13.9
2022-08-01T20:30:15.498Z,13.8
2022-08-01T20:35:13.432Z,13.9
2022-08-01T20:40:11.624Z,13.9
2022-08-01T20:45:09.704Z,13.9
2022-08-01T20:50:07.863Z,13.9
2022-08-01T20:55:05.786Z,13.9
2022-08-01T21:00:03.891Z,13.8
2022-08-01T21:05:01.926Z,13.8
2022-08-01T21:10:00.180Z,13.6
2022-08-01T21:14:58.147Z,13.4
2022-08-01T21:19:56.099Z,13.4
2022-08-01T21:24:58.544Z,13.4
2022-08-01T21:29:52.144Z,13.3
2022-08-01T21:34:50.338Z,13.3
2022-08-01T21:39:48.384Z,13.2
2022-08-01T21:44:46.256Z,13.1
2022-08-01T21:49:44.306Z,13.1
2022-08-01T21:54:42.414Z,13.1
2022-08-01T21:59:40.565Z,13.2
2022-08-01T22:04:38.797Z,13.3
2022-08-01T22:09:36.736Z,13.4
2022-08-01T22:14:34.727Z,13.2
2022-08-01T22:19:43.747Z,13.1
2022-08-01T22:24:30.940Z,13
2022-08-01T22:29:28.845Z,12.9
2022-08-01T22:34:26.948Z,12.5
2022-08-01T22:39:24.792Z,12.1
2022-08-01T22:44:25.332Z,12
2022-08-01T22:49:20.670Z,11.9
2022-08-01T22:54:19.468Z,11.9
2022-08-01T22:59:20.219Z,11.9
2022-08-01T23:04:17.526Z,11.8
2022-08-01T23:09:15.470Z,11.6
2022-08-01T23:14:13.423Z,11.4
2022-08-01T23:19:11.427Z,11.3
2022-08-01T23:24:09.464Z,11.2
2022-08-01T23:29:07.448Z,11.1
2022-08-01T23:34:05.796Z,11.1
2022-08-01T23:39:03.916Z,11.1
2022-08-01T23:44:02.130Z,11.1
2022-08-01T23:49:00.140Z,11.1
2022-08-01T23:53:58.117Z,11.1
2022-08-01T23:58:56.270Z,11.1
